地図

経路データ

SID SEASON NUMBER BASIN SUBBASIN NAME ISO_TIME NATURE LAT LON WMO_WIND WMO_PRES WMO_AGENCY TRACK_TYPE DIST2LAND LANDFALL IFLAG USA_AGENCY USA_ATCF_ID USA_LAT USA_LON USA_RECORD USA_STATUS USA_WIND USA_PRES USA_SSHS USA_R34_NE USA_R34_SE USA_R34_SW USA_R34_NW USA_R50_NE USA_R50_SE USA_R50_SW USA_R50_NW USA_R64_NE USA_R64_SE USA_R64_SW USA_R64_NW USA_POCI USA_ROCI USA_RMW USA_EYE TOKYO_LAT TOKYO_LON TOKYO_GRADE TOKYO_WIND TOKYO_PRES TOKYO_R50_DIR TOKYO_R50_LONG TOKYO_R50_SHORT TOKYO_R30_DIR TOKYO_R30_LONG TOKYO_R30_SHORT TOKYO_LAND CMA_LAT CMA_LON CMA_CAT CMA_WIND CMA_PRES HKO_LAT HKO_LON HKO_CAT HKO_WIND HKO_PRES NEWDELHI_LAT NEWDELHI_LON NEWDELHI_GRADE NEWDELHI_WIND NEWDELHI_PRES NEWDELHI_CI NEWDELHI_DP NEWDELHI_POCI REUNION_LAT REUNION_LON REUNION_TYPE REUNION_WIND REUNION_PRES REUNION_TNUM REUNION_CI REUNION_RMW REUNION_R34_NE REUNION_R34_SE REUNION_R34_SW REUNION_R34_NW REUNION_R50_NE REUNION_R50_SE REUNION_R50_SW REUNION_R50_NW REUNION_R64_NE REUNION_R64_SE REUNION_R64_SW REUNION_R64_NW BOM_LAT BOM_LON BOM_TYPE BOM_WIND BOM_PRES BOM_TNUM BOM_CI BOM_RMW BOM_R34_NE BOM_R34_SE BOM_R34_SW BOM_R34_NW BOM_R50_NE BOM_R50_SE BOM_R50_SW BOM_R50_NW BOM_R64_NE BOM_R64_SE BOM_R64_SW BOM_R64_NW BOM_ROCI BOM_POCI BOM_EYE BOM_POS_METHOD BOM_PRES_METHOD NADI_LAT NADI_LON NADI_CAT NADI_WIND NADI_PRES WELLINGTON_LAT WELLINGTON_LON WELLINGTON_WIND WELLINGTON_PRES DS824_LAT DS824_LON DS824_STAGE DS824_WIND DS824_PRES TD9636_LAT TD9636_LON TD9636_STAGE TD9636_WIND TD9636_PRES TD9635_LAT TD9635_LON TD9635_WIND TD9635_PRES TD9635_ROCI NEUMANN_LAT NEUMANN_LON NEUMANN_CLASS NEUMANN_WIND NEUMANN_PRES MLC_LAT MLC_LON MLC_CLASS MLC_WIND MLC_PRES USA_GUST BOM_GUST BOM_GUST_PER REUNION_GUST REUNION_GUST_PER USA_SEAHGT USA_SEARAD_NE USA_SEARAD_SE USA_SEARAD_SW USA_SEARAD_NW STORM_SPEED STORM_DIR
1970259N24166 1970 113 WP MM NOT_NAMED 1970-09-16 00:00:00 TS 23.5000 165.700 main 2742 2696 __O___________ -1 23.5000 165.700 0 19 1008 8 302
1970259N24166 1970 113 WP MM NOT_NAMED 1970-09-16 03:00:00 TS 23.7228 165.308 main 2696 2652 __P___________ -1 23.7228 165.308 0 19 1008 8 308
1970259N24166 1970 113 WP MM NOT_NAMED 1970-09-16 06:00:00 TS 24.0000 165.000 main 2652 2616 __O___________ -1 24.0000 165.000 0 19 1008 8 326
1970259N24166 1970 113 WP MM NOT_NAMED 1970-09-16 09:00:00 TS 24.3698 164.827 main 2610 2576 __P___________ -1 24.3698 164.827 0 19 1008 8 341
1970259N24166 1970 113 WP MM NOT_NAMED 1970-09-16 12:00:00 TS 24.8000 164.700 main 2576 2535 __O___________ -1 24.8000 164.700 0 19 1008 9 341
1970259N24166 1970 113 WP MM NOT_NAMED 1970-09-16 15:00:00 TS 25.2575 164.493 main 2529 2488 __P___________ -1 25.2575 164.493 0 19 1008 10 338
1970259N24166 1970 113 WP MM NOT_NAMED 1970-09-16 18:00:00 TS 25.7000 164.300 main 2488 2455 __O___________ -1 25.7000 164.300 0 19 1008 9 341
1970259N24166 1970 113 WP MM NOT_NAMED 1970-09-16 21:00:00 TS 26.0725 164.177 main 2455 2430 __P___________ -1 26.0725 164.177 0 21 1008 7 345
1970259N24166 1970 113 WP MM NOT_NAMED 1970-09-17 00:00:00 TS 26.4000 164.100 main 2430 2404 __O___________ -1 26.4000 164.100 1 23 1008 7 349
1970259N24166 1970 113 WP MM NOT_NAMED 1970-09-17 03:00:00 TS 26.7075 164.035 main 2404 2387 __P___________ -1 26.7075 164.035 1 23 1008 6 352
1970259N24166 1970 113 WP MM NOT_NAMED 1970-09-17 06:00:00 TS 27.0000 164.000 main 2387 2371 __O___________ -1 27.0000 164.000 1 23 1008 6 355
1970259N24166 1970 113 WP MM NOT_NAMED 1970-09-17 09:00:00 TS 27.2775 163.985 main 2371 2355 __P___________ -1 27.2775 163.985 1 23 1008 6 1
1970259N24166 1970 113 WP MM NOT_NAMED 1970-09-17 12:00:00 TS 27.6000 164.000 main 2355 2327 __O___________ -1 27.6000 164.000 1 23 1008 8 3
1970259N24166 1970 113 WP MM NOT_NAMED 1970-09-17 15:00:00 TS 28.0575 164.028 main 2318 2283 __P___________ -1 28.0575 164.028 1 23 1008 9 5
1970259N24166 1970 113 WP MM NOT_NAMED 1970-09-17 18:00:00 TS 28.5000 164.100 main 2283 2259 __O___________ -1 28.5000 164.100 1 23 1008 8 13
1970259N24166 1970 113 WP MM NOT_NAMED 1970-09-17 21:00:00 TS 28.8024 164.213 main 2259 2245 __P___________ -1 28.8024 164.213 1 23 1008 6 28
1970259N24166 1970 113 WP MM NOT_NAMED 1970-09-18 00:00:00 TS 29.0000 164.400 main 2250 2245 __O___________ -1 29.0000 164.400 1 23 1008 5 53
1970259N24166 1970 113 WP MM NOT_NAMED 1970-09-18 03:00:00 TS 29.1151 164.685 main 2255 2251 __P___________ -1 29.1151 164.685 1 23 1008 6 69
1970259N24166 1970 113 WP MM NOT_NAMED 1970-09-18 06:00:00 TS 29.2000 165.000 main 2261 2257 __O___________ -1 29.2000 165.000 1 23 1008 5 65
1970259N24166 1970 113 WP MM NOT_NAMED 1970-09-18 09:00:00 TS 29.3499 165.250 main 2267 2254 __P___________ -1 29.3499 165.250 1 23 1009 5 55
1970259N24166 1970 113 WP MM NOT_NAMED 1970-09-18 12:00:00 TS 29.5000 165.500 main 2259 2255 __O___________ -1 29.5000 165.500 1 23 1010 5 62
1970259N24166 1970 113 WP MM NOT_NAMED 1970-09-18 15:00:00 TS 29.5999 165.785 main 2265 2265 __P___________ -1 29.5999 165.785 1 23 1010 6 69
1970259N24166 1970 113 WP MM NOT_NAMED 1970-09-18 18:00:00 TS 29.7000 166.100 main 2272 2268 __O___________ -1 29.7000 166.100 1 23 1010 6 67
1970259N24166 1970 113 WP MM NOT_NAMED 1970-09-18 21:00:00 TS 29.8426 166.457 main 2284 2275 __P___________ -1 29.8426 166.457 1 23 1010 7 64
1970259N24166 1970 113 WP MM NOT_NAMED 1970-09-19 00:00:00 TS 30.0000 166.800 main 2282 2278 __O___________ -1 30.0000 166.800 1 23 1010 6 60
1970259N24166 1970 113 WP MM NOT_NAMED 1970-09-19 03:00:00 TS 30.1499 167.065 main 2289 2276 __P___________ -1 30.1499 167.065 1 23 1010 5 55
1970259N24166 1970 113 WP MM NOT_NAMED 1970-09-19 06:00:00 TS 30.3000 167.300 main 2282 2278 __O___________ -1 30.3000 167.300 1 23 1010 5 54
1970259N24166 1970 113 WP MM NOT_NAMED 1970-09-19 09:00:00 TS 30.4499 167.543 main 2284 2277 __P___________ -1 30.4499 167.543 1 23 1010 5 55
1970259N24166 1970 113 WP MM NOT_NAMED 1970-09-19 12:00:00 TS 30.6000 167.800 main 2282 2279 __O___________ -1 30.6000 167.800 1 23 1010 6 56
1970259N24166 1970 113 WP MM NOT_NAMED 1970-09-19 15:00:00 TS 30.7650 168.092 main 2282 2282 __P___________ -1 30.7650 168.092 1 23 1010 6 60
1970259N24166 1970 113 WP MM NOT_NAMED 1970-09-19 18:00:00 TS 30.9000 168.400 main 2290 2287 __O___________ -1 30.9000 168.400 1 23 1010 6 66
1970259N24166 1970 113 WP MM NOT_NAMED 1970-09-19 21:00:00 TS 30.9949 168.700 main 2299 2299 __P___________ -1 30.9949 168.700 1 23 1010 5 79
1970259N24166 1970 113 WP MM NOT_NAMED 1970-09-20 00:00:00 TS 31.0000 169.000 main 2317 2317 __O___________ -1 31.0000 169.000 1 23 1010 5 103
1970259N24166 1970 113 WP MM NOT_NAMED 1970-09-20 03:00:00 TS 30.8725 169.308 main 2343 2343 __P___________ -1 30.8725 169.308 1 23 1010 6 120
1970259N24166 1970 113 WP MM NOT_NAMED 1970-09-20 06:00:00 TS 30.7000 169.600 main 2379 2379 __O___________ -1 30.7000 169.600 1 23 1010 6 120
1970259N24166 1970 113 WP MM NOT_NAMED 1970-09-20 09:00:00 TS 30.5999 169.865 main 2405 2405 __P___________ -1 30.5999 169.865 1 23 1010 5 115
1970259N24166 1970 113 WP MM NOT_NAMED 1970-09-20 12:00:00 TS 30.5000 170.100 main 2426 2426 __O___________ -1 30.5000 170.100 1 23 1010 5 121
1970259N24166 1970 113 WP MM NOT_NAMED 1970-09-20 15:00:00 TS 30.3650 170.315 main 2447 2447 __P___________ -1 30.3650 170.315 1 23 1010 5 131
1970259N24166 1970 113 WP MM NOT_NAMED 1970-09-20 18:00:00 TS 30.2000 170.500 main 2476 2476 __O___________ -1 30.2000 170.500 1 23 1010 5 133
1970259N24166 1970 113 WP MM NOT_NAMED 1970-09-20 21:00:00 TS 30.0375 170.718 main 2506 2506 __P___________ -1 30.0375 170.718 1 23 1010 5 147
1970259N24166 1970 113 WP MM NOT_NAMED 1970-09-21 00:00:00 TS 29.8000 170.800 main 2529 2529 __O___________ -1 29.8000 170.800 1 23 1010 6 187
1970259N24166 1970 113 WP MM NOT_NAMED 1970-09-21 03:00:00 TS 29.4224 170.640 main 2552 2552 __P___________ -1 29.4224 170.640 1 23 1010 9 209
1970259N24166 1970 113 WP MM NOT_NAMED 1970-09-21 06:00:00 TS 29.0000 170.300 main 2570 2570 __O___________ -1 29.0000 170.300 1 23 1010 10 220
1970259N24166 1970 113 WP MM NOT_NAMED 1970-09-21 09:00:00 TS 28.6277 169.865 main 2582 2574 __P___________ -1 28.6277 169.865 1 23 1010 11 228
1970259N24166 1970 113 WP MM NOT_NAMED 1970-09-21 12:00:00 TS 28.3000 169.400 main 2581 2576 __O___________ -1 28.3000 169.400 1 23 1010 9 231
1970259N24166 1970 113 WP MM NOT_NAMED 1970-09-21 15:00:00 TS 28.0422 169.043 main 2586 2581 __P___________ -1 28.0422 169.043 1 23 1010 8 231
1970259N24166 1970 113 WP MM NOT_NAMED 1970-09-21 18:00:00 TS 27.8000 168.700 main 2589 2587 __O___________ -1 27.8000 168.700 1 23 1010 9 228
1970259N24166 1970 113 WP MM NOT_NAMED 1970-09-21 21:00:00 TS 27.4773 168.322 main 2595 2595 __P___________ -1 27.4773 168.322 1 21 1010 9 230
1970259N24166 1970 113 WP MM NOT_NAMED 1970-09-22 00:00:00 TS 27.2000 167.900 main 2602 2585 __O___________ -1 27.2000 167.900 0 19 1010 9 242
1970259N24166 1970 113 WP MM NOT_NAMED 1970-09-22 03:00:00 TS 27.0550 167.415 main 2585 2568 __P___________ -1 27.0550 167.415 0 19 1010 9 257
1970259N24166 1970 113 WP MM NOT_NAMED 1970-09-22 06:00:00 TS 27.0000 166.900 main 2568 2542 __O___________ -1 27.0000 166.900 0 19 1010 9 268
1970259N24166 1970 113 WP MM NOT_NAMED 1970-09-22 09:00:00 TS 27.0223 166.401 main 2542 2517 __P___________ -1 27.0223 166.401 0 19 1010 9 270
1970259N24166 1970 113 WP MM NOT_NAMED 1970-09-22 12:00:00 TS 27.0000 165.900 main 2517 2507 __O___________ -1 27.0000 165.900 0 19 1010 9 256
1970259N24166 1970 113 WP MM NOT_NAMED 1970-09-22 15:00:00 TS 26.8024 165.392 main 2512 2492 __P___________ -1 26.8024 165.392 0 19 1010 10 241
1970259N24166 1970 113 WP MM NOT_NAMED 1970-09-22 18:00:00 TS 26.5000 164.900 main 2492 2475 __O___________ -1 26.5000 164.900 0 19 1010 11 231
1970259N24166 1970 113 WP MM NOT_NAMED 1970-09-22 21:00:00 TS 26.1122 164.450 main 2472 2456 __P___________ -1 26.1122 164.450 0 19 1010 11 229
1970259N24166 1970 113 WP MM NOT_NAMED 1970-09-23 00:00:00 TS 25.8000 164.000 main 2456 2420 __O___________ -1 25.8000 164.000 0 19 1010 9 245
1970259N24166 1970 113 WP MM NOT_NAMED 1970-09-23 03:00:00 TS 25.7248 163.515 main 2420 2372 __P___________ -1 25.7248 163.515 0 19 1010 9 270
1970259N24166 1970 113 WP MM NOT_NAMED 1970-09-23 06:00:00 TS 25.8000 163.000 main 2372 2324 __O___________ -1 25.8000 163.000 0 19 1010 10 283
1970259N24166 1970 113 WP MM NOT_NAMED 1970-09-23 09:00:00 TS 25.9379 162.458 main 2324 2262 __P___________ -1 25.9379 162.458 0 19 1010 10 287
1970259N24166 1970 113 WP MM NOT_NAMED 1970-09-23 12:00:00 TS 26.1000 161.900 main 2262 __O___________ -1 26.1000 161.900 0 19 1010 11 288

デジタル台風データ・検索

IBTrACS Databaseについて

本データベースは、米国NOAAが公開する1842年以降の世界の熱帯低気圧のベストトラックデータアーカイブInternational Best Track Archive for Climate Stewardship (IBTrACS)を、ウェブで閲覧しやすい形式に変換したものです。

最終更新日:2021-10-21